Aegean Tiffany — SVAE9 — position and weather

sailwx.info

Track history (hours):
 
Tides and Currents Weather Stations Pressure Air Temp Water Temp Dewpoint Dewpoint Depression Visibility Wind Speed Wind Dir Waves Ship Positions

Aegean Tiffany

Last reported at 2014-Aug-17 16:33 UTC. Time now 2014-Aug-20 22:31 UTC.
Position N 37°59' E 023°25'.

Length 80 m; draft 5.7 m.

Type: Tanker. MMSI: 240870000.

Date/timePositionNaut miles runAvg speedWind from/ knotsBaromVisibWave heightAir tempDewpointWater temp
2014-Aug-17 16:33N 37°59' E 023°25'7 6.1
2014-Aug-17 15:27N 38°02' E 023°32'0 0.0
2014-Aug-17 14:30N 38°02' E 023°32'0 0.0
2014-Aug-17 13:33N 38°02' E 023°32'0 0.0
2014-Aug-17 12:27N 38°02' E 023°32'0 0.1
2014-Aug-17 11:19N 38°02' E 023°32'1 1.6
2014-Aug-17 10:32N 38°02' E 023°30'0 0.0
2014-Aug-17 09:31N 38°02' E 023°30'0 0.0
2014-Aug-17 08:31N 38°02' E 023°30'0 0.0
2014-Aug-17 07:31N 38°02' E 023°30'0 0.0
2014-Aug-17 06:30N 38°02' E 023°30'0 0.0
2014-Aug-17 05:33N 38°02' E 023°30'0 0.3
2014-Aug-17 04:34N 38°02' E 023°31'0 0.0
2014-Aug-17 03:33N 38°02' E 023°31'0 0.0
2014-Aug-17 02:33N 38°02' E 023°31'0 0.0
2014-Aug-17 01:34N 38°02' E 023°31'0 0.0
2014-Aug-17 00:34N 38°02' E 023°31'0 0.0
2014-Aug-16 23:33N 38°02' E 023°31'1 0.9
2014-Aug-16 22:31N 38°02' E 023°32'0 0.1
2014-Aug-16 21:32N 38°02' E 023°32'0 0.0
2014-Aug-16 20:30N 38°02' E 023°32'0 0.0
2014-Aug-16 04:12N 38°02' E 023°32'2 2.7
2014-Aug-16 03:31N 38°01' E 023°30'3 3.2
2014-Aug-16 02:33N 37°60' E 023°27'7 6.8
2014-Aug-16 01:31N 37°56' E 023°19'  
2014-Aug-12 19:19N 37°57' E 023°19'5 6.4
2014-Aug-12 18:34N 37°59' E 023°25'7 6.3
2014-Aug-12 17:30N 38°02' E 023°32'0 0.0
2014-Aug-12 08:19N 38°02' E 023°32'0 0.0
2014-Aug-12 07:34N 38°02' E 023°32'1 0.6
2014-Aug-12 06:33N 38°02' E 023°33'2 2.1
2014-Aug-12 05:21N 38°02' E 023°36'0 0.0
2014-Aug-12 02:33N 38°02' E 023°36'0 0.0
2014-Aug-11 23:33N 38°02' E 023°36'0 0.0
2014-Aug-11 22:33N 38°02' E 023°36'0 0.0
2014-Aug-11 21:29N 38°02' E 023°36'0 0.0
2014-Aug-11 20:33N 38°02' E 023°36'3 0.4
2014-Aug-11 12:23N 38°02' E 023°32'0 0.0
2014-Aug-11 11:30N 38°02' E 023°32'0 0.0
2014-Aug-11 10:32N 38°02' E 023°32'0 0.0
2014-Aug-11 09:33N 38°02' E 023°32'0 0.0
2014-Aug-11 08:33N 38°02' E 023°32'0 0.0
2014-Aug-11 07:33N 38°02' E 023°32'0 0.0
2014-Aug-11 06:30N 38°02' E 023°32'0 0.0
2014-Aug-10 10:32N 38°02' E 023°32'5 5.6
2014-Aug-10 09:33N 37°57' E 023°34'0 0.0
2014-Aug-10 08:33N 37°57' E 023°34'2 1.7
2014-Aug-10 07:33N 37°58' E 023°33'4 3.5
2014-Aug-10 06:28N 38°02' E 023°32'5 5.7
2014-Aug-10 05:33N 37°60' E 023°26'8 7.0
2014-Aug-10 04:22N 37°56' E 023°17'  
Track history (hours):
 
Tides and Currents Weather Stations Pressure Air Temp Water Temp Dewpoint Dewpoint Depression Visibility Wind Speed Wind Dir Waves Ship Positions

Aegean Tiffany

Last reported at 2014-Aug-17 16:33 UTC. Time now 2014-Aug-20 22:31 UTC.
Position N 37°59' E 023°25'.

Length 80 m; draft 5.7 m.

Type: Tanker. MMSI: 240870000.

Date/timePositionNaut miles runAvg speedWind from/ knotsBaromVisibWave heightAir tempDewpointWater temp
2014-Aug-17 16:33N 37°59' E 023°25'7 6.1
2014-Aug-17 15:27N 38°02' E 023°32'0 0.0
2014-Aug-17 14:30N 38°02' E 023°32'0 0.0
2014-Aug-17 13:33N 38°02' E 023°32'0 0.0
2014-Aug-17 12:27N 38°02' E 023°32'0 0.1
2014-Aug-17 11:19N 38°02' E 023°32'1 1.6
2014-Aug-17 10:32N 38°02' E 023°30'0 0.0
2014-Aug-17 09:31N 38°02' E 023°30'0 0.0
2014-Aug-17 08:31N 38°02' E 023°30'0 0.0
2014-Aug-17 07:31N 38°02' E 023°30'0 0.0
2014-Aug-17 06:30N 38°02' E 023°30'0 0.0
2014-Aug-17 05:33N 38°02' E 023°30'0 0.3
2014-Aug-17 04:34N 38°02' E 023°31'0 0.0
2014-Aug-17 03:33N 38°02' E 023°31'0 0.0
2014-Aug-17 02:33N 38°02' E 023°31'0 0.0
2014-Aug-17 01:34N 38°02' E 023°31'0 0.0
2014-Aug-17 00:34N 38°02' E 023°31'0 0.0
2014-Aug-16 23:33N 38°02' E 023°31'1 0.9
2014-Aug-16 22:31N 38°02' E 023°32'0 0.1
2014-Aug-16 21:32N 38°02' E 023°32'0 0.0
2014-Aug-16 20:30N 38°02' E 023°32'0 0.0
2014-Aug-16 04:12N 38°02' E 023°32'2 2.7
2014-Aug-16 03:31N 38°01' E 023°30'3 3.2
2014-Aug-16 02:33N 37°60' E 023°27'7 6.8
2014-Aug-16 01:31N 37°56' E 023°19'  
2014-Aug-12 19:19N 37°57' E 023°19'5 6.4
2014-Aug-12 18:34N 37°59' E 023°25'7 6.3
2014-Aug-12 17:30N 38°02' E 023°32'0 0.0
2014-Aug-12 08:19N 38°02' E 023°32'0 0.0
2014-Aug-12 07:34N 38°02' E 023°32'1 0.6
2014-Aug-12 06:33N 38°02' E 023°33'2 2.1
2014-Aug-12 05:21N 38°02' E 023°36'0 0.0
2014-Aug-12 02:33N 38°02' E 023°36'0 0.0
2014-Aug-11 23:33N 38°02' E 023°36'0 0.0
2014-Aug-11 22:33N 38°02' E 023°36'0 0.0
2014-Aug-11 21:29N 38°02' E 023°36'0 0.0
2014-Aug-11 20:33N 38°02' E 023°36'3 0.4
2014-Aug-11 12:23N 38°02' E 023°32'0 0.0
2014-Aug-11 11:30N 38°02' E 023°32'0 0.0
2014-Aug-11 10:32N 38°02' E 023°32'0 0.0
2014-Aug-11 09:33N 38°02' E 023°32'0 0.0
2014-Aug-11 08:33N 38°02' E 023°32'0 0.0
2014-Aug-11 07:33N 38°02' E 023°32'0 0.0
2014-Aug-11 06:30N 38°02' E 023°32'0 0.0
2014-Aug-10 10:32N 38°02' E 023°32'5 5.6
2014-Aug-10 09:33N 37°57' E 023°34'0 0.0
2014-Aug-10 08:33N 37°57' E 023°34'2 1.7
2014-Aug-10 07:33N 37°58' E 023°33'4 3.5
2014-Aug-10 06:28N 38°02' E 023°32'5 5.7
2014-Aug-10 05:33N 37°60' E 023°26'8 7.0
2014-Aug-10 04:22N 37°56' E 023°17'  

Dump ship's entire track history